createdAt,value
2023-02-12T00:00:52.437Z,4.63
2023-02-12T00:03:19.442Z,4.71
2023-02-12T00:05:46.435Z,4.73
2023-02-12T00:08:14.457Z,4.75
2023-02-12T00:10:43.311Z,4.73
2023-02-12T00:13:11.790Z,4.70
2023-02-12T00:15:40.586Z,4.74
2023-02-12T00:18:08.036Z,4.67
2023-02-12T00:20:36.637Z,4.62
2023-02-12T00:23:04.057Z,4.61
2023-02-12T00:25:31.140Z,4.65
2023-02-12T00:27:58.190Z,4.63
2023-02-12T00:30:26.234Z,4.68
2023-02-12T00:32:55.620Z,4.69
2023-02-12T00:35:22.600Z,4.68
2023-02-12T00:37:50.820Z,4.66
2023-02-12T00:40:17.962Z,4.68
2023-02-12T00:42:44.964Z,4.70
2023-02-12T00:45:11.945Z,4.76
2023-02-12T00:47:38.913Z,4.80
2023-02-12T00:50:06.657Z,4.81
2023-02-12T00:52:33.660Z,4.86
2023-02-12T00:55:00.658Z,4.87
2023-02-12T00:57:27.759Z,4.82
2023-02-12T00:59:56.801Z,4.81
2023-02-12T01:02:24.000Z,4.87
2023-02-12T01:04:50.977Z,4.91
2023-02-12T01:07:18.038Z,4.89
2023-02-12T01:09:44.971Z,4.87
2023-02-12T01:12:12.432Z,4.92
2023-02-12T01:14:39.411Z,4.96
2023-02-12T01:17:09.387Z,4.96
2023-02-12T01:19:36.382Z,4.99
2023-02-12T01:22:03.469Z,4.95
2023-02-12T01:24:30.463Z,5.00
2023-02-12T01:26:58.562Z,5.01
2023-02-12T01:29:25.644Z,4.94
2023-02-12T01:31:52.750Z,4.89
2023-02-12T01:34:19.885Z,4.83
2023-02-12T01:36:46.821Z,4.80
2023-02-12T01:39:13.890Z,4.74
2023-02-12T01:41:43.838Z,4.66
2023-02-12T01:44:28.610Z,4.66
2023-02-12T01:47:01.182Z,4.67
2023-02-12T01:49:31.583Z,4.65
2023-02-12T01:52:05.316Z,4.63
2023-02-12T01:54:35.270Z,4.65
2023-02-12T01:57:04.688Z,4.64
2023-02-12T01:59:32.185Z,4.64
2023-02-12T02:01:59.908Z,4.65
2023-02-12T02:04:33.466Z,4.65
2023-02-12T02:07:03.871Z,4.68
2023-02-12T02:09:34.961Z,4.68
2023-02-12T02:12:20.523Z,4.71
2023-02-12T02:14:49.585Z,4.72
2023-02-12T02:17:22.511Z,4.67
2023-02-12T02:20:16.850Z,4.68
2023-02-12T02:23:02.259Z,4.62
2023-02-12T02:25:29.240Z,4.62
2023-02-12T02:28:34.323Z,4.61
2023-02-12T02:31:12.807Z,4.53
2023-02-12T02:33:39.818Z,4.48
2023-02-12T02:36:26.222Z,4.49
2023-02-12T02:39:20.108Z,4.41
2023-02-12T02:42:02.029Z,4.34
2023-02-12T02:44:39.198Z,4.25
2023-02-12T02:47:12.838Z,4.31
2023-02-12T02:49:45.901Z,4.32
2023-02-12T02:52:20.002Z,4.37
2023-02-12T02:54:54.982Z,4.36
2023-02-12T02:57:31.288Z,4.37
2023-02-12T03:00:18.888Z,4.37
2023-02-12T03:02:53.057Z,4.35
2023-02-12T03:05:27.079Z,4.41
2023-02-12T03:08:05.127Z,4.43
2023-02-12T03:10:38.717Z,4.42
2023-02-12T03:13:18.751Z,4.38
2023-02-12T03:15:58.590Z,4.42
2023-02-12T03:18:32.038Z,4.48
2023-02-12T03:21:05.902Z,4.50
2023-02-12T03:23:43.127Z,4.51
2023-02-12T03:26:14.270Z,4.53
2023-02-12T03:28:41.343Z,4.57
2023-02-12T03:31:20.582Z,4.60
2023-02-12T03:34:04.293Z,4.58
2023-02-12T03:36:53.425Z,4.65
2023-02-12T03:39:35.210Z,4.63
2023-02-12T03:42:14.409Z,4.66
2023-02-12T03:45:05.566Z,4.75
2023-02-12T03:47:46.585Z,4.83
2023-02-12T03:50:33.365Z,4.85
2023-02-12T03:53:00.325Z,4.83
2023-02-12T03:55:27.330Z,4.82
2023-02-12T03:58:01.548Z,4.90
2023-02-12T04:00:28.632Z,4.87
2023-02-12T04:02:55.902Z,4.89
2023-02-12T04:05:26.060Z,4.80
2023-02-12T04:07:56.026Z,4.87
2023-02-12T04:10:31.586Z,4.94
2023-02-12T04:13:04.707Z,4.99
2023-02-12T04:15:52.476Z,5.05
2023-02-12T04:18:34.220Z,5.06
2023-02-12T04:21:19.077Z,5.12
2023-02-12T04:24:18.266Z,5.17
2023-02-12T04:27:02.419Z,5.20
2023-02-12T04:30:00.283Z,5.25
2023-02-12T04:32:52.135Z,5.29
2023-02-12T04:35:31.930Z,5.33
2023-02-12T04:38:01.627Z,5.34
2023-02-12T04:40:28.831Z,5.34
2023-02-12T04:42:56.160Z,5.35
2023-02-12T04:45:30.245Z,5.31
2023-02-12T04:47:57.416Z,5.33
2023-02-12T04:50:24.582Z,5.31
2023-02-12T04:52:53.095Z,5.26
2023-02-12T04:55:20.140Z,5.26
2023-02-12T04:57:47.873Z,5.26
2023-02-12T05:00:16.207Z,5.20
2023-02-12T05:02:43.192Z,5.22
2023-02-12T05:05:10.294Z,5.24
2023-02-12T05:07:37.432Z,5.17
2023-02-12T05:10:04.981Z,5.10
2023-02-12T05:12:31.900Z,5.03
2023-02-12T05:14:58.904Z,4.94
2023-02-12T05:17:26.343Z,4.87
2023-02-12T05:19:53.536Z,4.83
2023-02-12T05:22:21.068Z,4.80
2023-02-12T05:24:48.414Z,4.79
2023-02-12T05:27:15.694Z,4.80
2023-02-12T05:29:43.025Z,4.81
2023-02-12T05:32:10.227Z,4.80
2023-02-12T05:34:38.707Z,4.81
2023-02-12T05:37:05.895Z,4.80
2023-02-12T05:39:33.214Z,4.80
2023-02-12T05:42:00.297Z,4.76
2023-02-12T05:44:27.539Z,4.79
2023-02-12T05:46:54.894Z,4.80
2023-02-12T05:49:22.136Z,4.78
2023-02-12T05:51:50.027Z,4.77
2023-02-12T05:54:17.461Z,4.80
2023-02-12T05:56:47.496Z,4.86
2023-02-12T05:59:18.172Z,4.73
2023-02-12T06:01:47.345Z,4.75
2023-02-12T06:04:18.848Z,4.77
2023-02-12T06:06:46.532Z,4.82
2023-02-12T06:09:14.567Z,4.79
2023-02-12T06:11:42.610Z,4.79
2023-02-12T06:14:13.456Z,4.76
2023-02-12T06:16:41.000Z,4.77
2023-02-12T06:19:08.491Z,4.76
2023-02-12T06:21:35.736Z,4.72
2023-02-12T06:24:03.008Z,4.74
2023-02-12T06:26:30.299Z,4.70
2023-02-12T06:28:57.529Z,4.73
2023-02-12T06:31:28.827Z,4.75
2023-02-12T06:34:00.775Z,4.74
2023-02-12T06:36:28.734Z,4.76
2023-02-12T06:38:55.982Z,4.74
2023-02-12T06:41:24.260Z,4.82
2023-02-12T06:43:51.549Z,4.89
2023-02-12T06:46:19.080Z,4.94
2023-02-12T06:48:46.504Z,5.02
2023-02-12T06:51:16.403Z,5.09
2023-02-12T06:53:44.935Z,5.15
2023-02-12T06:56:13.524Z,5.18
2023-02-12T06:58:43.023Z,5.23
2023-02-12T07:01:18.255Z,5.29
2023-02-12T07:03:49.608Z,5.33
2023-02-12T07:06:17.464Z,5.35
2023-02-12T07:08:44.746Z,5.39
2023-02-12T07:11:12.305Z,5.47
2023-02-12T07:13:42.057Z,5.54
2023-02-12T07:16:14.773Z,5.63
2023-02-12T07:18:43.263Z,5.69
2023-02-12T07:21:12.253Z,5.76
2023-02-12T07:23:40.617Z,5.83
2023-02-12T07:26:13.255Z,5.94
2023-02-12T07:28:41.065Z,6.05
2023-02-12T07:31:17.773Z,6.19
2023-02-12T07:33:45.896Z,6.33
2023-02-12T07:36:16.698Z,6.52
2023-02-12T07:38:44.119Z,6.66
2023-02-12T07:41:26.025Z,6.78
2023-02-12T07:44:03.960Z,6.82
2023-02-12T07:46:36.818Z,6.88
2023-02-12T07:49:06.777Z,6.98
2023-02-12T07:51:35.558Z,7.07
2023-02-12T07:54:03.983Z,7.07
2023-02-12T07:56:35.464Z,7.17
2023-02-12T07:59:05.617Z,7.21
2023-02-12T08:01:46.137Z,7.20
2023-02-12T08:04:15.863Z,7.46
2023-02-12T08:06:45.914Z,7.62
2023-02-12T08:09:20.381Z,7.74
2023-02-12T08:11:48.267Z,7.89
2023-02-12T08:14:17.826Z,8.03
2023-02-12T08:16:46.509Z,8.15
2023-02-12T08:19:20.288Z,8.26
2023-02-12T08:21:54.023Z,8.23
2023-02-12T08:24:22.477Z,8.29
2023-02-12T08:26:50.656Z,8.29
2023-02-12T08:29:21.395Z,8.34
2023-02-12T08:31:50.632Z,8.37
2023-02-12T08:34:29.741Z,8.40
2023-02-12T08:36:58.338Z,8.48
2023-02-12T08:39:28.580Z,8.36
2023-02-12T08:41:57.300Z,8.57
2023-02-12T08:44:25.005Z,8.67
2023-02-12T08:46:53.904Z,8.79
2023-02-12T08:49:26.854Z,8.92
2023-02-12T08:51:56.010Z,8.86
2023-02-12T08:54:25.531Z,9.08
2023-02-12T08:56:57.533Z,9.03
2023-02-12T08:59:25.632Z,9.20
2023-02-12T09:01:53.729Z,9.30
2023-02-12T09:04:27.107Z,9.48
2023-02-12T09:06:54.617Z,9.58
2023-02-12T09:09:22.389Z,9.73
2023-02-12T09:11:50.129Z,9.82
2023-02-12T09:14:19.333Z,9.91
2023-02-12T09:16:46.632Z,10.01
2023-02-12T09:19:15.701Z,10.07
2023-02-12T09:21:43.130Z,10.05
2023-02-12T09:24:11.180Z,10.06
2023-02-12T09:26:40.178Z,10.06
2023-02-12T09:29:07.412Z,10.06
2023-02-12T09:31:34.777Z,10.05
2023-02-12T09:34:04.348Z,10.22
2023-02-12T09:36:32.969Z,10.14
2023-02-12T09:39:00.729Z,10.35
2023-02-12T09:42:18.097Z,10.44
2023-02-12T09:45:03.051Z,10.48
2023-02-12T09:47:49.930Z,10.63
2023-02-12T09:50:57.533Z,10.70
2023-02-12T09:53:29.212Z,10.87
2023-02-12T09:55:57.127Z,11.01
2023-02-12T09:58:41.982Z,11.15
2023-02-12T10:01:14.797Z,11.23
2023-02-12T10:03:43.703Z,11.42
2023-02-12T10:06:21.297Z,11.61
2023-02-12T10:09:18.138Z,11.86
2023-02-12T10:12:17.817Z,12.05
2023-02-12T10:14:48.017Z,12.16
2023-02-12T10:17:50.577Z,12.59
2023-02-12T10:20:58.100Z,12.81
2023-02-12T10:23:43.753Z,13.16
2023-02-12T10:26:26.118Z,13.56
2023-02-12T10:28:55.378Z,13.71
2023-02-12T10:31:32.179Z,13.85
2023-02-12T10:33:59.658Z,14.04
2023-02-12T10:36:47.823Z,14.23
2023-02-12T10:39:21.656Z,14.57
2023-02-12T10:42:10.257Z,14.61
2023-02-12T10:44:37.572Z,14.83
2023-02-12T10:47:04.892Z,14.84
2023-02-12T10:49:33.380Z,14.63
2023-02-12T10:52:13.132Z,14.75
2023-02-12T10:54:45.611Z,14.86
2023-02-12T10:57:30.183Z,14.73
2023-02-12T11:00:21.020Z,14.98
2023-02-12T11:03:06.171Z,14.89
2023-02-12T11:05:36.114Z,15.20
2023-02-12T11:08:03.981Z,15.34
2023-02-12T11:10:41.053Z,15.65
2023-02-12T11:13:25.414Z,15.73
2023-02-12T11:15:53.476Z,15.93
2023-02-12T11:18:26.993Z,16.30
2023-02-12T11:20:58.217Z,16.61
2023-02-12T11:23:38.266Z,16.92
2023-02-12T11:26:07.383Z,17.07
2023-02-12T11:28:36.994Z,16.99
2023-02-12T11:31:22.861Z,16.94
2023-02-12T11:34:08.142Z,16.99
2023-02-12T11:36:39.009Z,16.98
2023-02-12T11:39:08.099Z,16.77
2023-02-12T11:41:38.458Z,16.25
2023-02-12T11:44:29.392Z,16.26
2023-02-12T11:47:07.253Z,16.02
2023-02-12T11:49:39.495Z,16.19
2023-02-12T11:52:08.095Z,16.16
2023-02-12T11:54:42.906Z,16.28
2023-02-12T11:57:35.863Z,16.44
2023-02-12T12:00:14.384Z,16.32
2023-02-12T12:13:48.491Z,15.01
2023-02-12T12:16:46.498Z,14.92
2023-02-12T12:19:53.570Z,14.82
2023-02-12T12:22:56.151Z,14.99
2023-02-12T12:25:36.614Z,15.15
2023-02-12T12:28:29.281Z,15.07
2023-02-12T12:31:03.159Z,15.01
2023-02-12T12:33:40.218Z,14.77
2023-02-12T12:36:13.306Z,14.67
2023-02-12T12:38:59.580Z,14.65
2023-02-12T12:41:52.263Z,14.46
2023-02-12T12:44:28.459Z,14.50
2023-02-12T12:47:01.941Z,14.37
2023-02-12T12:49:44.135Z,14.20
2023-02-12T12:52:17.416Z,14.08
2023-02-12T12:54:47.694Z,14.36
2023-02-12T12:57:28.774Z,14.58
2023-02-12T13:00:40.896Z,15.09
2023-02-12T13:03:20.778Z,15.57
2023-02-12T13:06:22.262Z,16.28
2023-02-12T13:09:15.814Z,17.25
2023-02-12T13:11:51.987Z,18.12
2023-02-12T13:14:36.512Z,18.91
2023-02-12T13:17:26.254Z,19.67
2023-02-12T13:20:08.775Z,20.94
2023-02-12T13:22:52.216Z,22.17
2023-02-12T13:25:51.346Z,23.45
2023-02-12T13:28:40.960Z,24.37
2023-02-12T13:31:32.095Z,25.26
2023-02-12T13:34:07.294Z,25.92
2023-02-12T13:36:37.376Z,26.42
2023-02-12T13:39:11.096Z,27.10
2023-02-12T13:41:40.376Z,27.84
2023-02-12T13:44:21.783Z,28.53
2023-02-12T13:47:05.703Z,29.17
2023-02-12T13:49:41.856Z,29.40
2023-02-12T13:52:50.617Z,29.88
2023-02-12T13:55:56.912Z,29.98
2023-02-12T13:58:37.856Z,29.63
2023-02-12T14:01:14.652Z,28.82
2023-02-12T14:03:42.141Z,27.95
2023-02-12T14:06:16.542Z,26.97
2023-02-12T14:09:11.415Z,25.73
2023-02-12T14:11:54.213Z,24.71
2023-02-12T14:14:47.578Z,23.53
2023-02-12T14:17:31.020Z,22.45
2023-02-12T14:20:25.894Z,21.56
2023-02-12T14:22:58.773Z,20.63
2023-02-12T14:25:30.943Z,20.12
2023-02-12T14:28:06.604Z,19.50
2023-02-12T14:30:40.217Z,18.92
2023-02-12T14:33:07.577Z,18.55
2023-02-12T14:35:45.780Z,17.89
2023-02-12T14:38:12.897Z,17.59
2023-02-12T14:40:44.420Z,17.05
2023-02-12T14:43:54.670Z,16.79
2023-02-12T14:46:25.049Z,16.41
2023-02-12T14:48:56.536Z,16.18
2023-02-12T14:51:38.455Z,15.78
2023-02-12T14:54:15.689Z,15.46
2023-02-12T14:56:48.544Z,15.18
2023-02-12T14:59:20.332Z,14.90
2023-02-12T15:01:49.636Z,14.75
2023-02-12T15:04:33.092Z,14.51
2023-02-12T15:07:08.605Z,14.31
2023-02-12T15:09:47.249Z,14.12
2023-02-12T15:12:22.889Z,13.93
2023-02-12T15:14:57.089Z,13.79
2023-02-12T15:17:32.891Z,13.58
2023-02-12T15:20:08.533Z,13.47
2023-02-12T15:22:39.941Z,13.34
2023-02-12T15:25:30.524Z,13.16
2023-02-12T15:27:58.696Z,13.11
2023-02-12T15:30:27.221Z,12.95
2023-02-12T15:32:59.545Z,12.87
2023-02-12T15:35:28.555Z,12.77
2023-02-12T15:37:57.813Z,12.66
2023-02-12T15:40:25.180Z,12.54
2023-02-12T15:42:59.184Z,12.44
2023-02-12T15:45:37.090Z,12.33
2023-02-12T15:48:10.371Z,12.23
2023-02-12T15:50:50.533Z,12.12
2023-02-12T15:53:18.571Z,12.00
2023-02-12T15:55:48.172Z,11.91
2023-02-12T15:58:37.537Z,11.82
2023-02-12T16:01:06.852Z,11.73
2023-02-12T16:03:36.213Z,11.59
2023-02-12T16:06:11.851Z,11.48
2023-02-12T16:08:41.180Z,11.36
2023-02-12T16:11:16.217Z,11.22
2023-02-12T16:13:45.775Z,11.11
2023-02-12T16:16:12.937Z,10.98
2023-02-12T16:18:44.214Z,10.86
2023-02-12T16:21:19.412Z,10.73
2023-02-12T16:23:48.539Z,10.60
2023-02-12T16:26:19.971Z,10.48
2023-02-12T16:28:49.779Z,10.34
2023-02-12T16:31:18.183Z,10.24
2023-02-12T16:34:07.266Z,10.10
2023-02-12T16:36:48.817Z,9.99
2023-02-12T16:39:40.733Z,9.91
2023-02-12T16:42:20.614Z,9.80
2023-02-12T16:44:48.773Z,9.71
2023-02-12T16:47:26.021Z,9.53
2023-02-12T16:50:00.139Z,9.28
2023-02-12T16:52:41.894Z,9.09
2023-02-12T16:55:17.974Z,8.91
2023-02-12T16:57:45.406Z,8.80
2023-02-12T17:00:16.357Z,8.68
2023-02-12T17:02:43.899Z,8.61
2023-02-12T17:05:11.428Z,8.53
2023-02-12T17:07:38.617Z,8.45
2023-02-12T17:10:06.496Z,8.36
2023-02-12T17:12:33.916Z,8.23
2023-02-12T17:15:05.789Z,8.17
2023-02-12T17:17:33.064Z,8.00
2023-02-12T17:20:00.220Z,7.95
2023-02-12T17:22:28.216Z,7.88
2023-02-12T17:24:55.421Z,7.79
2023-02-12T17:27:22.783Z,7.64
2023-02-12T17:29:50.159Z,7.66
2023-02-12T17:32:17.763Z,7.67
2023-02-12T17:34:48.800Z,7.72
2023-02-12T17:37:18.337Z,7.72
2023-02-12T17:39:46.313Z,7.69
2023-02-12T17:42:13.777Z,7.66
2023-02-12T17:44:41.985Z,7.63
2023-02-12T17:47:09.264Z,7.60
2023-02-12T17:49:38.980Z,7.58
2023-02-12T17:52:07.476Z,7.54
2023-02-12T17:54:34.782Z,7.47
2023-02-12T17:57:01.979Z,7.42
2023-02-12T17:59:29.577Z,7.34
2023-02-12T18:01:56.935Z,7.30
2023-02-12T18:04:24.285Z,7.28
2023-02-12T18:06:51.503Z,7.26
2023-02-12T18:09:18.784Z,7.23
2023-02-12T18:11:45.949Z,7.20
2023-02-12T18:14:13.223Z,7.17
2023-02-12T18:16:40.409Z,7.15
2023-02-12T18:19:07.629Z,7.10
2023-02-12T18:21:35.377Z,7.03
2023-02-12T18:24:03.579Z,6.96
2023-02-12T18:26:30.804Z,6.92
2023-02-12T18:28:59.304Z,6.83
2023-02-12T18:31:27.546Z,6.76
2023-02-12T18:33:54.894Z,6.72
2023-02-12T18:36:23.460Z,6.68
2023-02-12T18:38:52.097Z,6.63
2023-02-12T18:41:25.095Z,6.59
2023-02-12T18:43:53.260Z,6.53
2023-02-12T18:46:26.379Z,6.50
2023-02-12T18:48:54.193Z,6.41
2023-02-12T18:51:24.581Z,6.34
2023-02-12T18:54:04.333Z,6.25
2023-02-12T18:56:35.267Z,6.20
2023-02-12T18:59:05.443Z,6.13
2023-02-12T19:01:34.523Z,6.14
2023-02-12T19:04:07.462Z,6.11
2023-02-12T19:06:40.892Z,6.15
2023-02-12T19:09:09.189Z,6.18
2023-02-12T19:11:36.459Z,6.19
2023-02-12T19:14:04.699Z,6.19
2023-02-12T19:16:33.817Z,6.19
2023-02-12T19:19:03.027Z,6.14
2023-02-12T19:21:30.610Z,6.06
2023-02-12T19:23:59.618Z,6.09
2023-02-12T19:26:30.091Z,6.05
2023-02-12T19:28:57.862Z,6.00
2023-02-12T19:31:45.588Z,5.97
2023-02-12T19:34:17.376Z,5.93
2023-02-12T19:36:44.973Z,5.92
2023-02-12T19:39:17.820Z,5.87
2023-02-12T19:41:47.137Z,5.85
2023-02-12T19:44:21.749Z,5.87
2023-02-12T19:46:50.801Z,5.80
2023-02-12T19:49:21.787Z,5.67
2023-02-12T19:51:49.659Z,5.65
2023-02-12T19:54:18.549Z,5.62
2023-02-12T19:56:46.417Z,5.51
2023-02-12T19:59:17.509Z,5.46
2023-02-12T20:01:45.848Z,5.48
2023-02-12T20:04:13.936Z,5.46
2023-02-12T20:06:42.259Z,5.45
2023-02-12T20:09:11.338Z,5.45
2023-02-12T20:11:39.581Z,5.45
2023-02-12T20:14:07.948Z,5.41
2023-02-12T20:16:38.201Z,5.40
2023-02-12T20:19:12.257Z,5.33
2023-02-12T20:21:40.098Z,5.30
2023-02-12T20:24:07.778Z,5.24
2023-02-12T20:26:35.741Z,5.19
2023-02-12T20:29:05.381Z,5.16
2023-02-12T20:31:36.311Z,5.14
2023-02-12T20:34:07.897Z,5.06
2023-02-12T20:36:37.780Z,5.08
2023-02-12T20:39:07.259Z,5.08
2023-02-12T20:41:37.835Z,5.05
2023-02-12T20:44:06.902Z,5.01
2023-02-12T20:46:38.156Z,4.94
2023-02-12T20:49:09.102Z,4.93
2023-02-12T20:51:36.495Z,4.87
2023-02-12T20:54:04.185Z,4.81
2023-02-12T20:56:34.851Z,4.74
2023-02-12T20:59:02.979Z,4.68
2023-02-12T21:01:36.230Z,4.60
2023-02-12T21:04:08.869Z,4.55
2023-02-12T21:06:37.253Z,4.48
2023-02-12T21:09:04.557Z,4.45
2023-02-12T21:11:31.812Z,4.38
2023-02-12T21:14:18.473Z,4.35
2023-02-12T21:16:47.491Z,4.29
2023-02-12T21:19:14.706Z,4.26
2023-02-12T21:21:45.303Z,4.23
2023-02-12T21:24:19.087Z,4.17
2023-02-12T21:26:46.580Z,4.11
2023-02-12T21:29:14.175Z,4.11
2023-02-12T21:31:43.905Z,4.13
2023-02-12T21:34:16.085Z,4.17
2023-02-12T21:36:47.862Z,4.15
2023-02-12T21:39:25.114Z,4.12
2023-02-12T21:41:55.009Z,4.07
2023-02-12T21:44:23.645Z,4.07
2023-02-12T21:46:51.244Z,4.06
2023-02-12T21:49:25.125Z,4.06
2023-02-12T21:52:02.541Z,4.03
2023-02-12T21:54:30.690Z,4.04
2023-02-12T21:56:58.440Z,4.03
2023-02-12T21:59:26.848Z,4.06
2023-02-12T22:01:56.521Z,4.07
2023-02-12T22:04:23.729Z,4.04
2023-02-12T22:06:52.958Z,4.04
2023-02-12T22:09:22.376Z,4.05
2023-02-12T22:11:52.698Z,4.05
2023-02-12T22:14:21.651Z,4.07
2023-02-12T22:16:49.570Z,4.07
2023-02-12T22:19:16.930Z,4.06
2023-02-12T22:21:44.703Z,4.07
2023-02-12T22:24:14.705Z,4.07
2023-02-12T22:26:42.290Z,4.08
2023-02-12T22:29:12.000Z,4.06
2023-02-12T22:31:41.891Z,4.01
2023-02-12T22:34:13.772Z,4.02
2023-02-12T22:36:42.201Z,4.02
2023-02-12T22:39:11.558Z,4.03
2023-02-12T22:41:39.117Z,4.00
2023-02-12T22:44:06.435Z,4.00
2023-02-12T22:46:35.515Z,3.97
2023-02-12T22:49:02.956Z,3.94
2023-02-12T22:51:32.559Z,3.90
2023-02-12T22:54:00.528Z,3.83
2023-02-12T22:56:27.970Z,3.83
2023-02-12T22:58:57.716Z,3.85
2023-02-12T23:01:25.800Z,3.80
2023-02-12T23:03:53.224Z,3.75
2023-02-12T23:06:23.751Z,3.67
2023-02-12T23:08:53.637Z,3.67
2023-02-12T23:11:22.230Z,3.69
2023-02-12T23:13:49.558Z,3.74
2023-02-12T23:16:16.937Z,3.76
2023-02-12T23:18:44.549Z,3.78
2023-02-12T23:21:11.766Z,3.76
2023-02-12T23:23:39.279Z,3.72
2023-02-12T23:26:06.524Z,3.73
2023-02-12T23:28:33.749Z,3.76
2023-02-12T23:31:01.638Z,3.75
2023-02-12T23:33:29.024Z,3.77
2023-02-12T23:35:56.296Z,3.74
2023-02-12T23:38:23.579Z,3.80
2023-02-12T23:40:50.905Z,3.83
2023-02-12T23:43:18.180Z,3.82
2023-02-12T23:45:46.390Z,3.78
2023-02-12T23:48:13.741Z,3.78
2023-02-12T23:50:41.511Z,3.78
2023-02-12T23:53:10.346Z,3.77
2023-02-12T23:55:38.551Z,3.74
2023-02-12T23:58:07.243Z,3.69
